Time;durP1;ratioP1;P1;durP2;ratioP2;P2;SDS_P1;SDS_P2;PMS_P1;PMS_P2;Temp;Humidity;BMP_temperature;BMP_pressure;BME280_temperature;BME280_humidity;BME280_pressure;Samples;Min_cycle;Max_cycle;Signal;HPM_P1;HPM_P2
2022/05/21 00:02:05;;;;;;;22.48;9.02;;;;;;;-144.47;100.00;61586.06;5092505;28;20529;-83
2022/05/21 00:04:31;;;;;;;9.57;7.20;;;;;;;21.26;100.00;61586.06;5095229;28;20086;-84
2022/05/21 00:06:59;;;;;;;9.50;7.85;;;;;;;21.26;100.00;61586.06;5094306;28;20028;-85
2022/05/21 00:09:27;;;;;;;8.50;7.45;;;;;;;-144.47;100.00;61586.06;5094187;28;20066;-84
2022/05/21 00:11:53;;;;;;;9.68;7.43;;;;;;;21.26;100.00;61586.06;5090088;28;20526;-84
2022/05/21 00:14:20;;;;;;;10.23;8.20;;;;;;;21.26;100.00;61586.06;5094037;28;20028;-83
2022/05/21 00:16:47;;;;;;;8.10;6.47;;;;;;;187.31;100.00;61586.06;5094397;28;20086;-85
2022/05/21 00:19:13;;;;;;;7.78;6.85;;;;;;;20.25;100.00;61586.06;5094557;28;20454;-84
2022/05/21 00:21:38;;;;;;;8.80;6.72;;;;;;;20.61;100.00;61586.06;5102574;28;20028;-85
2022/05/21 00:24:04;;;;;;;8.20;6.55;;;;;;;21.26;100.00;61586.06;5113190;28;20052;-85
2022/05/21 00:26:29;;;;;;;8.93;6.65;;;;;;;21.26;100.00;61586.06;5105543;28;20039;-84
2022/05/21 00:28:55;;;;;;;8.35;6.70;;;;;;;21.26;100.00;61586.06;5096156;28;20071;-84
2022/05/21 00:31:21;;;;;;;7.15;6.53;;;;;;;20.61;100.00;61586.06;5094033;28;20032;-85
2022/05/21 00:33:47;;;;;;;10.55;6.78;;;;;;;21.26;100.00;61586.06;5094894;28;20535;-85
2022/05/21 00:36:13;;;;;;;10.18;6.82;;;;;;;187.31;100.00;61586.06;5092997;28;20046;-84
2022/05/21 00:38:40;;;;;;;8.18;6.82;;;;;;;21.26;100.00;61586.06;5094879;28;20036;-84
2022/05/21 00:41:08;;;;;;;7.65;6.95;;;;;;;21.26;100.00;61586.06;5092462;28;20077;-84
2022/05/21 00:43:52;;;;;;;8.35;6.70;;;;;;;20.28;100.00;61586.06;5092696;28;20081;-85
2022/05/21 00:46:24;;;;;;;10.38;7.28;;;;;;;21.26;100.00;61586.06;5092340;28;20036;-86
2022/05/21 00:48:58;;;;;;;7.15;6.53;;;;;;;21.26;100.00;61586.06;5093775;28;20449;-85
2022/05/21 00:51:30;;;;;;;9.23;7.55;;;;;;;21.26;100.00;61586.06;5090284;28;20036;-85
2022/05/21 00:53:59;;;;;;;9.02;6.90;;;;;;;21.26;100.00;61586.06;5089826;28;20038;-85
2022/05/21 00:56:27;;;;;;;8.95;7.18;;;;;;;21.26;100.00;61586.06;5088834;28;20400;-84
2022/05/21 01:01:43;;;;;;;9.68;7.35;;;;;;;20.61;100.00;61586.06;5091071;28;20036;-84
2022/05/21 01:04:08;;;;;;;;;;;;;;;21.26;100.00;61586.06;5092172;28;20064;-85
2022/05/21 01:06:35;;;;;;;7.28;6.68;;;;;;;21.26;100.00;61586.06;5094078;28;20315;-84
2022/05/21 01:09:01;;;;;;;9.52;6.80;;;;;;;21.26;100.00;61586.06;5091833;28;20036;-85
2022/05/21 01:11:28;;;;;;;7.78;6.97;;;;;;;-144.47;100.00;61586.06;5093842;28;20396;-84
2022/05/21 01:13:54;;;;;;;7.53;6.70;;;;;;;187.31;100.00;61586.06;5093150;28;20032;-85
2022/05/21 01:16:20;;;;;;;8.85;7.15;;;;;;;19.97;100.00;61586.06;5093227;28;20036;-85
2022/05/21 01:18:45;;;;;;;8.23;6.57;;;;;;;187.31;100.00;61586.06;5093630;28;20703;-85
2022/05/21 01:21:12;;;;;;;9.27;6.95;;;;;;;187.31;100.00;61586.06;5093547;28;20115;-84
2022/05/21 01:23:38;;;;;;;7.95;6.68;;;;;;;-144.47;100.00;61586.06;5092531;28;20115;-84
2022/05/21 01:26:06;;;;;;;7.47;6.75;;;;;;;-144.47;100.00;61586.06;5093417;28;20055;-84
2022/05/21 01:28:36;;;;;;;9.38;6.70;;;;;;;-144.47;100.00;61586.06;5093315;28;20095;-85
2022/05/21 01:31:03;;;;;;;9.93;7.55;;;;;;;19.47;100.00;61586.06;5093066;28;20495;-84
2022/05/21 01:33:32;;;;;;;8.45;7.10;;;;;;;-144.47;100.00;61586.06;5093544;28;20024;-84
2022/05/21 01:35:58;;;;;;;7.93;7.22;;;;;;;187.31;100.00;61586.06;5093636;28;20118;-84
2022/05/21 01:38:25;;;;;;;9.38;7.32;;;;;;;-144.47;100.00;61586.06;5093932;28;20027;-83
2022/05/21 01:40:51;;;;;;;9.35;7.75;;;;;;;-144.47;100.00;61586.06;5105601;28;20044;-85
2022/05/21 01:46:01;;;;;;;8.15;7.35;;;;;;;-144.47;100.00;61586.06;5101732;28;20036;-84
2022/05/21 01:48:30;;;;;;;10.23;7.55;;;;;;;-144.47;100.00;61586.06;5100757;28;20031;-84
2022/05/21 01:50:56;;;;;;;8.77;7.75;;;;;;;-144.47;100.00;61586.06;5116283;28;20020;-84
2022/05/21 01:53:24;;;;;;;8.48;7.75;;;;;;;-144.47;100.00;61586.06;5112288;28;20251;-84
2022/05/21 01:55:50;;;;;;;9.82;7.63;;;;;;;-144.47;100.00;61586.06;5106594;28;20032;-85
2022/05/21 01:58:16;;;;;;;14.68;8.90;;;;;;;19.02;100.00;61586.06;5091746;28;20030;-84
2022/05/21 02:00:43;;;;;;;9.38;8.10;;;;;;;-144.47;100.00;61586.06;5093009;28;20052;-84
2022/05/21 02:03:10;;;;;;;9.52;8.38;;;;;;;-144.47;100.00;61586.06;5090681;28;20032;-85
2022/05/21 02:05:36;;;;;;;9.32;8.43;;;;;;;-144.47;100.00;61586.06;5093063;28;20044;-84
2022/05/21 02:08:03;;;;;;;9.45;7.68;;;;;;;19.97;100.00;61586.06;5092063;28;20023;-84
2022/05/21 02:10:28;;;;;;;9.35;8.52;;;;;;;-144.47;100.00;61586.06;5092244;28;20039;-83
2022/05/21 02:12:54;;;;;;;8.63;7.90;;;;;;;-144.47;100.00;61586.06;5092587;28;20028;-84
2022/05/21 02:15:19;;;;;;;8.98;8.07;;;;;;;-144.47;100.00;61586.06;5091694;28;20133;-83
2022/05/21 02:17:45;;;;;;;10.95;8.63;;;;;;;-144.47;100.00;61586.06;5093131;28;20039;-83
2022/05/21 02:20:11;;;;;;;8.45;7.45;;;;;;;18.52;100.00;81437.38;5101040;28;20024;-85
2022/05/21 02:22:36;;;;;;;11.10;8.25;;;;;;;187.31;100.00;61586.06;5099315;28;20032;-83
2022/05/21 02:25:07;;;;;;;9.63;8.43;;;;;;;18.66;100.00;61586.06;5099536;28;20534;-84
2022/05/21 02:27:32;;;;;;;9.52;8.70;;;;;;;187.31;100.00;61586.06;5104058;28;20503;-85
2022/05/21 02:29:58;;;;;;;8.85;7.88;;;;;;;18.58;100.00;61586.06;5095984;28;20028;-84
2022/05/21 02:32:24;;;;;;;10.15;9.23;;;;;;;18.50;100.00;61586.06;5092422;28;20028;-85
2022/05/21 02:34:49;;;;;;;9.18;8.38;;;;;;;18.47;100.00;61586.06;5091880;28;20032;-83
2022/05/21 02:39:59;;;;;;;9.70;8.75;;;;;;;18.34;100.00;61586.06;5073153;28;20027;-83
2022/05/21 02:42:43;;;;;;;13.10;9.35;;;;;;;18.30;100.00;61586.06;5091842;28;20035;-82
2022/05/21 02:45:14;;;;;;;9.55;8.63;;;;;;;18.33;100.00;61586.06;5073589;28;20028;-84
2022/05/21 02:47:40;;;;;;;10.50;8.82;;;;;;;-144.47;100.00;61586.06;5091491;28;20077;-84
2022/05/21 02:50:08;;;;;;;10.23;8.48;;;;;;;18.35;100.00;61586.06;5091322;28;20472;-83
2022/05/21 02:52:33;;;;;;;10.88;9.68;;;;;;;18.32;100.00;61586.06;5091814;28;20089;-83
2022/05/21 02:54:59;;;;;;;11.73;8.60;;;;;;;18.39;100.00;61586.06;5091290;28;20114;-82
2022/05/21 02:57:25;;;;;;;12.10;8.45;;;;;;;18.36;100.00;61586.06;5091485;28;20035;-83
2022/05/21 02:59:51;;;;;;;11.55;8.40;;;;;;;18.31;100.00;61586.06;5089742;28;20034;-84
2022/05/21 03:02:20;;;;;;;9.70;8.65;;;;;;;18.25;100.00;61586.06;5090890;28;20036;-83
2022/05/21 03:04:45;;;;;;;9.68;8.48;;;;;;;18.18;100.00;61586.06;5090067;28;20036;-83
2022/05/21 03:07:11;;;;;;;12.77;9.00;;;;;;;-144.47;100.00;61586.06;5091092;28;20032;-83
2022/05/21 03:12:22;;;;;;;10.20;9.18;;;;;;;-144.47;100.00;61586.06;5089786;28;20097;-85
2022/05/21 03:14:47;;;;;;;9.45;8.65;;;;;;;-144.47;100.00;61586.06;5090607;28;20040;-84
2022/05/21 03:17:13;;;;;;;9.60;8.10;;;;;;;-144.47;100.00;61586.06;5090651;28;20470;-83
2022/05/21 03:19:38;;;;;;;12.07;9.05;;;;;;;-144.47;100.00;61586.06;5091104;28;20463;-83
2022/05/21 03:22:04;;;;;;;11.45;9.02;;;;;;;-144.47;100.00;61586.06;5090449;28;20028;-83
2022/05/21 03:24:30;;;;;;;10.60;9.35;;;;;;;-144.47;100.00;61586.06;5091176;28;20107;-83
2022/05/21 03:26:56;;;;;;;11.50;9.90;;;;;;;-144.47;100.00;61586.06;5090871;28;20422;-83
2022/05/21 03:29:23;;;;;;;10.25;9.32;;;;;;;-144.47;100.00;61586.06;5086941;28;20032;-82
2022/05/21 03:31:49;;;;;;;11.77;9.73;;;;;;;-144.47;100.00;61586.06;5090251;28;20156;-84
2022/05/21 03:34:15;;;;;;;10.90;9.43;;;;;;;17.64;100.00;61586.06;5089271;28;20426;-85
2022/05/21 03:36:41;;;;;;;13.80;9.27;;;;;;;17.62;100.00;61586.06;5093487;28;20027;-85
2022/05/21 03:39:07;;;;;;;12.07;9.88;;;;;;;17.62;100.00;61586.06;5105046;28;20047;-84
2022/05/21 03:41:33;;;;;;;11.23;9.90;;;;;;;17.62;100.00;61586.06;5104009;28;20048;-85
2022/05/21 03:44:00;;;;;;;11.27;9.63;;;;;;;17.57;100.00;61586.06;5100528;28;20051;-84
2022/05/21 03:46:27;;;;;;;13.00;9.73;;;;;;;17.98;100.00;61586.06;5082581;28;20039;-84
2022/05/21 03:48:52;;;;;;;16.52;10.45;;;;;;;18.02;100.00;61586.06;5080194;28;20055;-84
2022/05/21 03:51:18;;;;;;;11.13;9.93;;;;;;;17.70;100.00;61586.06;5095496;28;20414;-84
2022/05/21 03:53:44;;;;;;;15.32;9.73;;;;;;;18.02;100.00;61586.06;5106733;28;20020;-85
2022/05/21 03:56:09;;;;;;;13.70;10.25;;;;;;;18.02;100.00;61586.06;5110641;28;20016;-84
2022/05/21 03:58:35;;;;;;;11.10;10.00;;;;;;;17.68;100.00;61586.06;5111574;28;20047;-84
2022/05/21 04:01:00;;;;;;;12.88;10.02;;;;;;;-144.47;100.00;61586.06;5109619;28;20080;-84
2022/05/21 04:03:26;;;;;;;12.00;10.15;;;;;;;-144.47;100.00;61586.06;5100246;28;20032;-84
2022/05/21 04:05:56;;;;;;;10.93;9.60;;;;;;;-144.47;100.00;61586.06;5101177;28;20036;-84
2022/05/21 04:08:22;;;;;;;12.77;9.98;;;;;;;-144.47;100.00;61586.06;5115881;28;20029;-84
2022/05/21 04:10:48;;;;;;;15.75;10.50;;;;;;;-144.47;100.00;61586.06;5096260;28;20062;-84
2022/05/21 04:13:14;;;;;;;10.80;9.45;;;;;;;18.67;100.00;61586.06;5095333;28;20464;-85
2022/05/21 04:15:39;;;;;;;10.15;9.23;;;;;;;18.67;100.00;61586.06;5095138;28;20067;-82
2022/05/21 04:18:05;;;;;;;11.23;9.98;;;;;;;-144.47;100.00;61586.06;5093859;28;20632;-85
2022/05/21 04:20:31;;;;;;;10.75;9.63;;;;;;;-144.47;100.00;61586.06;5094053;28;20023;-84
2022/05/21 04:22:58;;;;;;;11.82;9.65;;;;;;;-144.47;100.00;61586.06;5092161;28;20107;-85
2022/05/21 04:25:24;;;;;;;11.00;9.88;;;;;;;17.92;100.00;61586.06;5092729;28;20040;-84
2022/05/21 04:27:50;;;;;;;13.38;9.75;;;;;;;-144.47;100.00;61586.06;5093748;28;20077;-85
2022/05/21 04:30:19;;;;;;;11.38;9.63;;;;;;;18.67;100.00;61586.06;5093681;28;20020;-84
2022/05/21 04:32:46;;;;;;;10.25;9.23;;;;;;;-144.47;100.00;61586.06;5093342;28;20063;-84
2022/05/21 04:35:12;;;;;;;13.13;9.43;;;;;;;-144.47;100.00;61586.06;5093472;28;20031;-84
2022/05/21 04:37:38;;;;;;;10.25;9.07;;;;;;;17.96;100.00;81343.16;5092390;28;20089;-84
2022/05/21 04:40:06;;;;;;;11.32;9.07;;;;;;;17.86;100.00;81328.63;5075191;28;20020;-83
2022/05/21 04:42:32;;;;;;;10.68;8.75;;;;;;;17.87;100.00;81331.00;5093522;28;20040;-83
2022/05/21 04:44:57;;;;;;;10.90;8.90;;;;;;;-144.47;100.00;61586.06;5093533;28;20111;-84
2022/05/21 04:47:24;;;;;;;9.95;9.05;;;;;;;17.89;100.00;81437.38;5093834;28;20051;-84
2022/05/21 04:49:50;;;;;;;12.15;9.35;;;;;;;17.84;100.00;103720.59;5092925;28;20082;-85
2022/05/21 04:52:15;;;;;;;10.25;9.35;;;;;;;-144.47;100.00;61586.06;5093429;28;20032;-84
2022/05/21 04:54:41;;;;;;;11.10;9.02;;;;;;;17.85;100.00;61586.06;5093999;28;20032;-84
2022/05/21 04:57:06;;;;;;;11.32;10.07;;;;;;;17.88;100.00;61586.06;5093567;28;20032;-83
2022/05/21 04:59:32;;;;;;;10.40;9.40;;;;;;;17.96;100.00;81342.50;5093945;28;20031;-82
2022/05/21 05:01:58;;;;;;;10.15;9.23;;;;;;;17.98;100.00;61586.06;5093688;28;20025;-82
2022/05/21 05:04:24;;;;;;;12.20;9.18;;;;;;;17.98;100.00;104042.75;5092119;28;20144;-83
2022/05/21 05:06:49;;;;;;;11.13;9.05;;;;;;;-144.47;100.00;61586.06;5092402;28;20047;-83
2022/05/21 05:09:17;;;;;;;9.60;8.70;;;;;;;-144.47;100.00;61586.06;5092519;28;20115;-83
2022/05/21 05:11:42;;;;;;;8.88;8.00;;;;;;;-144.47;100.00;61586.06;5093298;28;20044;-83
2022/05/21 05:14:08;;;;;;;9.73;8.73;;;;;;;-144.47;100.00;61586.06;5092780;28;20031;-83
2022/05/21 05:16:34;;;;;;;10.07;9.05;;;;;;;-144.47;100.00;61586.06;5092590;28;20028;-83
2022/05/21 05:18:59;;;;;;;9.60;8.75;;;;;;;18.14;100.00;81365.88;5091089;28;20488;-84
2022/05/21 05:21:25;;;;;;;10.27;8.93;;;;;;;18.18;100.00;81371.97;5091555;28;20047;-83
2022/05/21 05:23:50;;;;;;;10.25;9.32;;;;;;;-144.47;100.00;61586.06;5092566;28;20035;-83
2022/05/21 05:26:16;;;;;;;10.02;9.00;;;;;;;18.33;100.00;61586.06;5074130;28;20028;-83
2022/05/21 05:28:45;;;;;;;11.13;10.13;;;;;;;18.41;100.00;81415.66;5093269;28;20391;-82
2022/05/21 05:31:10;;;;;;;13.10;10.27;;;;;;;187.31;100.00;61586.06;5092595;28;20108;-80
2022/05/21 05:33:36;;;;;;;11.50;9.88;;;;;;;187.31;100.00;61586.06;5091499;28;20557;-80
2022/05/21 05:36:01;;;;;;;10.80;9.80;;;;;;;-144.47;100.00;61586.06;5088568;28;20138;-79
2022/05/21 05:38:27;;;;;;;12.80;10.55;;;;;;;-144.47;100.00;61586.06;5091819;28;20040;-79
2022/05/21 05:40:52;;;;;;;14.13;10.45;;;;;;;-144.47;100.00;61586.06;5088743;28;20042;-79
2022/05/21 05:43:20;;;;;;;12.73;10.90;;;;;;;-144.47;100.00;61586.06;5092034;28;20085;-79
2022/05/21 05:45:51;;;;;;;12.60;9.80;;;;;;;18.87;100.00;81464.13;5090897;28;20124;-78
2022/05/21 05:48:19;;;;;;;11.70;10.48;;;;;;;-144.47;100.00;61586.06;5091367;28;20506;-80
2022/05/21 05:50:45;;;;;;;11.85;10.55;;;;;;;-144.47;100.00;61586.06;5091787;28;20107;-82
2022/05/21 05:53:11;;;;;;;13.57;10.88;;;;;;;-144.47;100.00;61586.06;5089854;28;20702;-74
2022/05/21 05:55:37;;;;;;;12.13;10.80;;;;;;;-144.47;100.00;61586.06;5091418;28;20058;-71
2022/05/21 06:00:48;;;;;;;12.45;11.15;;;;;;;19.41;100.00;61586.06;5088869;28;20112;-71
2022/05/21 06:03:13;;;;;;;12.07;10.82;;;;;;;19.97;100.00;61586.06;5090348;28;20086;-71
2022/05/21 06:05:39;;;;;;;13.93;10.57;;;;;;;19.58;100.00;61586.06;5091160;28;20035;-71
2022/05/21 06:08:05;;;;;;;12.77;10.45;;;;;;;19.70;100.00;61586.06;5090307;28;20499;-71
2022/05/21 06:10:36;;;;;;;12.20;9.70;;;;;;;19.83;100.00;61586.06;5094103;28;20120;-71
2022/05/21 06:13:04;;;;;;;10.88;9.85;;;;;;;19.94;100.00;61586.06;5093687;28;20028;-70
2022/05/21 06:15:30;;;;;;;10.60;9.60;;;;;;;20.61;100.00;61586.06;5094290;28;20145;-71
2022/05/21 06:17:56;;;;;;;10.23;9.30;;;;;;;21.26;100.00;61586.06;5096647;28;20024;-71
2022/05/21 06:20:25;;;;;;;12.30;10.10;;;;;;;20.33;100.00;61586.06;5097555;28;20024;-72
2022/05/21 06:22:51;;;;;;;11.75;9.68;;;;;;;-144.47;100.00;61586.06;5092327;28;20118;-71
2022/05/21 06:25:20;;;;;;;13.85;9.98;;;;;;;-144.47;100.00;61586.06;5090633;28;20063;-72
2022/05/21 06:27:48;;;;;;;12.65;9.32;;;;;;;-144.47;100.00;61586.06;5095048;28;20055;-70
2022/05/21 06:30:15;;;;;;;13.18;9.10;;;;;;;21.26;100.00;61586.06;5098541;28;20137;-70
2022/05/21 06:32:40;;;;;;;11.32;8.80;;;;;;;187.31;100.00;61586.06;5098588;28;20424;-69
2022/05/21 06:35:07;;;;;;;11.98;9.10;;;;;;;-144.47;100.00;61586.06;5096526;28;20034;-69
2022/05/21 06:37:33;;;;;;;11.60;9.25;;;;;;;187.31;100.00;61586.06;5090586;28;20047;-69
2022/05/21 06:39:58;;;;;;;12.75;9.15;;;;;;;21.10;100.00;61586.06;5094262;28;20032;-69
2022/05/21 06:42:24;;;;;;;17.73;9.48;;;;;;;21.07;100.00;61586.06;5095644;28;20435;-71
2022/05/21 06:44:53;;;;;;;10.10;9.10;;;;;;;21.12;100.00;61586.06;5095319;28;20097;-72
2022/05/21 06:47:19;;;;;;;14.25;8.13;;;;;;;21.22;100.00;61586.06;5096080;28;20055;-71
2022/05/21 06:49:45;;;;;;;9.35;8.48;;;;;;;21.28;100.00;61586.06;5099334;28;20035;-71
2022/05/21 06:52:11;;;;;;;9.82;8.80;;;;;;;21.24;100.00;61586.06;5095194;28;20051;-71
2022/05/21 06:54:36;;;;;;;13.10;9.45;;;;;;;21.26;100.00;61586.06;5095692;28;20381;-70
2022/05/21 06:57:08;;;;;;;9.43;8.55;;;;;;;21.15;100.00;61586.06;5096192;28;20046;-71
2022/05/21 06:59:34;;;;;;;10.18;8.10;;;;;;;21.25;100.00;61586.06;5098022;28;20046;-71
2022/05/21 07:02:00;;;;;;;14.07;7.82;;;;;;;22.56;100.00;61586.06;5096465;28;20810;-70
2022/05/21 07:09:57;;;;;;;10.70;7.07;;;;;;;-144.47;100.00;61586.06;5089378;28;20490;-71
2022/05/21 07:12:24;;;;;;;9.55;7.82;;;;;;;-144.47;100.00;61586.06;5091623;28;20036;-72
2022/05/21 07:14:51;;;;;;;7.68;6.90;;;;;;;-144.47;100.00;61586.06;5093786;28;20059;-71
2022/05/21 07:17:18;;;;;;;14.38;7.40;;;;;;;104.25;100.00;61586.06;5095831;28;20795;-72
2022/05/21 07:19:45;;;;;;;8.38;7.43;;;;;;;-144.47;100.00;61586.06;5092488;28;20063;-72
2022/05/21 07:22:11;;;;;;;11.90;7.25;;;;;;;104.25;100.00;61586.06;5094741;28;20055;-69
2022/05/21 07:24:42;;;;;;;10.98;7.28;;;;;;;21.93;100.00;61586.06;5095053;28;20070;-69
2022/05/21 07:27:12;;;;;;;11.35;7.20;;;;;;;22.02;100.00;61586.06;5093062;28;20118;-69
2022/05/21 07:29:41;;;;;;;11.27;6.43;;;;;;;31.63;100.00;61586.06;5096786;28;20064;-68
2022/05/21 07:32:19;;;;;;;9.95;7.15;;;;;;;22.04;100.00;61586.06;5102262;28;20292;-70
2022/05/21 07:34:45;;;;;;;9.63;6.45;;;;;;;62.74;100.00;61586.06;5098752;28;20031;-69
2022/05/21 07:37:11;;;;;;;7.60;6.25;;;;;;;104.25;100.00;61586.06;5097679;28;20031;-69
2022/05/21 07:39:38;;;;;;;7.90;6.60;;;;;;;31.63;100.00;61586.06;5097473;28;20033;-73
2022/05/21 07:42:06;;;;;;;7.95;6.28;;;;;;;-144.47;100.00;61586.06;5098668;28;20024;-71
2022/05/21 07:44:31;;;;;;;7.10;6.25;;;;;;;-144.47;100.00;61586.06;5098776;28;20032;-70
2022/05/21 07:46:57;;;;;;;7.18;6.47;;;;;;;-144.47;100.00;61586.06;5096714;28;20024;-70
2022/05/21 07:49:23;;;;;;;8.68;6.70;;;;;;;-144.47;100.00;61586.06;5096793;28;20072;-70
2022/05/21 07:51:49;;;;;;;7.75;6.15;;;;;;;-144.47;100.00;61586.06;5094607;28;20047;-72
2022/05/21 07:54:15;;;;;;;9.52;6.20;;;;;;;-144.47;100.00;61586.06;5100636;28;20168;-71
2022/05/21 07:56:42;;;;;;;7.82;6.28;;;;;;;-144.47;100.00;61586.06;5092951;28;20028;-70
2022/05/21 07:59:08;;;;;;;6.80;6.10;;;;;;;-144.47;100.00;61586.06;5094830;28;20499;-70
2022/05/21 08:01:33;;;;;;;8.63;6.10;;;;;;;26.45;100.00;61586.06;5095673;28;20063;-72
2022/05/21 08:03:59;;;;;;;9.30;6.43;;;;;;;62.74;100.00;61586.06;5094772;28;20504;-71
2022/05/21 08:06:24;;;;;;;9.32;7.05;;;;;;;42.00;100.00;61586.06;5099935;28;20035;-70
2022/05/21 08:08:54;;;;;;;7.88;7.07;;;;;;;23.53;100.00;61586.06;5093829;28;20048;-70
2022/05/21 08:11:20;;;;;;;8.85;6.15;;;;;;;62.74;100.00;61586.06;5089683;28;20028;-75
2022/05/21 08:13:46;;;;;;;6.88;6.22;;;;;;;-144.47;100.00;61586.06;5092636;28;20024;-77
2022/05/21 08:16:12;;;;;;;7.40;5.90;;;;;;;42.00;100.00;61586.06;5091837;28;20036;-77
2022/05/21 08:18:38;;;;;;;8.30;6.28;;;;;;;42.00;100.00;61586.06;5092917;28;20545;-77
2022/05/21 08:21:03;;;;;;;11.25;5.97;;;;;;;104.25;100.00;61586.06;5093142;28;20103;-76
2022/05/21 08:28:57;;;;;;;13.98;7.25;;;;;;;42.00;100.00;61586.06;5089427;28;20062;-75
2022/05/21 08:31:22;;;;;;;9.85;6.65;;;;;;;42.00;100.00;61586.06;5092946;28;20079;-76
2022/05/21 08:33:48;;;;;;;8.55;7.10;;;;;;;62.74;100.00;61586.06;5092826;28;20051;-78
2022/05/21 08:36:13;;;;;;;10.65;6.00;;;;;;;104.25;100.00;61586.06;5093042;28;20035;-76
2022/05/21 08:38:41;;;;;;;8.27;6.15;;;;;;;104.25;100.00;61586.06;5092320;28;20081;-76
2022/05/21 08:41:20;;;;;;;9.38;5.65;;;;;;;42.00;100.00;61586.06;5093003;28;20024;-76
2022/05/21 08:43:48;;;;;;;6.35;5.65;;;;;;;62.74;100.00;61586.06;5091525;28;20047;-78
2022/05/21 08:46:53;;;;;;;9.60;5.90;;;;;;;62.74;100.00;61586.06;5093355;28;20032;-77
2022/05/21 08:49:34;;;;;;;10.30;5.70;;;;;;;42.00;100.00;61586.06;5090563;28;20453;-79
2022/05/21 08:52:18;;;;;;;6.57;5.53;;;;;;;31.63;100.00;61586.06;5087576;28;20549;-77
2022/05/21 08:54:46;;;;;;;9.30;5.03;;;;;;;42.00;100.00;61586.06;5090989;28;20060;-78
2022/05/21 08:57:19;;;;;;;8.27;5.20;;;;;;;25.15;100.00;61586.06;5091669;28;20067;-75
2022/05/21 09:00:11;;;;;;;5.75;5.18;;;;;;;-144.47;100.00;61586.06;5091195;28;20039;-77
2022/05/21 09:02:37;;;;;;;8.60;5.25;;;;;;;-144.47;100.00;61586.06;5088663;28;20032;-74
2022/05/21 09:05:07;;;;;;;7.30;5.50;;;;;;;187.31;100.00;61586.06;5091179;28;20159;-75
2022/05/21 09:07:50;;;;;;;5.25;4.78;;;;;;;-144.47;100.00;61586.06;5091886;28;20051;-76
2022/05/21 09:10:49;;;;;;;5.60;5.20;;;;;;;-144.47;100.00;61586.06;5091570;28;20085;-76
2022/05/21 09:13:25;;;;;;;5.20;4.70;;;;;;;-144.47;100.00;61586.06;5090703;28;20054;-78
2022/05/21 09:18:36;;;;;;;6.15;4.82;;;;;;;-144.47;100.00;61586.06;5089558;28;20100;-76
2022/05/21 09:21:17;;;;;;;6.43;4.88;;;;;;;-144.47;100.00;61586.06;5092382;28;20491;-75
2022/05/21 09:23:51;;;;;;;6.60;4.60;;;;;;;-144.47;100.00;61586.06;5093133;28;20036;-77
2022/05/21 09:26:20;;;;;;;7.75;4.85;;;;;;;-144.47;100.00;61586.06;5096260;28;20047;-76
2022/05/21 09:28:48;;;;;;;6.18;4.30;;;;;;;-144.47;100.00;61586.06;5099641;28;20504;-75
2022/05/21 09:31:23;;;;;;;8.32;4.88;;;;;;;-144.47;100.00;61586.06;5094072;28;20032;-75
2022/05/21 09:33:49;;;;;;;4.72;4.22;;;;;;;25.13;100.00;61586.06;5091459;28;20046;-76
2022/05/21 09:36:30;;;;;;;4.70;4.30;;;;;;;-144.47;100.00;61586.06;5091457;28;20046;-76
2022/05/21 09:38:56;;;;;;;6.25;4.50;;;;;;;-144.47;100.00;61586.06;5087722;28;20109;-75
2022/05/21 09:41:32;;;;;;;8.73;4.85;;;;;;;-144.47;100.00;61586.06;5091267;28;20067;-76
2022/05/21 09:47:16;;;;;;;8.20;4.55;;;;;;;-144.47;100.00;61586.06;5087781;28;20031;-77
2022/05/21 09:49:42;;;;;;;7.70;4.82;;;;;;;-144.47;100.00;61586.06;5091288;28;20047;-76
2022/05/21 09:52:23;;;;;;;5.10;4.60;;;;;;;-144.47;100.00;61586.06;5090859;28;20027;-76
2022/05/21 09:54:49;;;;;;;6.95;4.30;;;;;;;25.45;100.00;84585.13;5090824;28;20044;-77
2022/05/21 09:57:38;;;;;;;7.05;4.03;;;;;;;-144.47;100.00;61586.06;5090991;28;20035;-77
2022/05/21 10:00:27;;;;;;;10.40;4.70;;;;;;;-144.47;100.00;61586.06;5086834;28;20472;-69
2022/05/21 10:02:58;;;;;;;5.50;3.80;;;;;;;-144.47;100.00;61586.06;5089907;28;20683;-69
2022/05/21 10:05:28;;;;;;;8.68;4.55;;;;;;;25.49;100.00;61586.06;5086895;28;20036;-68
2022/05/21 10:11:07;;;;;;;6.88;4.80;;;;;;;-144.47;100.00;61586.06;5094666;28;20400;-70
2022/05/21 10:13:44;;;;;;;5.68;4.47;;;;;;;-144.47;100.00;61586.06;5092632;28;20055;-69
2022/05/21 10:16:18;;;;;;;5.13;4.63;;;;;;;-144.47;100.00;61586.06;5092449;28;20032;-71
2022/05/21 10:18:52;;;;;;;6.82;4.18;;;;;;;-144.47;100.00;61586.06;5095291;28;20048;-70
2022/05/21 10:21:28;;;;;;;6.18;4.50;;;;;;;-144.47;100.00;61586.06;5093807;28;20040;-69
2022/05/21 10:24:07;;;;;;;4.95;4.40;;;;;;;-144.47;100.00;61586.06;5095306;28;20074;-70
2022/05/21 10:26:41;;;;;;;7.65;4.30;;;;;;;-144.47;100.00;61586.06;5088804;28;20032;-71
2022/05/21 10:29:27;;;;;;;5.55;4.30;;;;;;;187.31;100.00;61586.06;5095858;28;20040;-70
2022/05/21 10:32:26;;;;;;;5.15;4.35;;;;;;;104.25;100.00;61586.06;5092693;28;20591;-70
2022/05/21 10:35:16;;;;;;;6.28;4.60;;;;;;;104.25;100.00;61586.06;5095743;28;20089;-70
2022/05/21 10:37:56;;;;;;;7.72;4.63;;;;;;;104.25;100.00;61586.06;5095668;28;20243;-71
2022/05/21 10:40:50;;;;;;;5.03;3.75;;;;;;;104.25;100.00;61586.06;5108144;27;20028;-71
2022/05/21 10:43:25;;;;;;;9.90;4.40;;;;;;;104.25;100.00;61586.06;5088324;28;20442;-68
2022/05/21 10:46:32;;;;;;;4.68;4.30;;;;;;;42.00;100.00;61586.06;5093616;28;20036;-70
2022/05/21 10:49:10;;;;;;;4.20;3.90;;;;;;;104.25;100.00;61586.06;5093958;28;20028;-70
2022/05/21 10:51:46;;;;;;;7.68;4.35;;;;;;;-144.47;100.00;61586.06;5091559;28;20040;-69
2022/05/21 10:54:23;;;;;;;5.15;4.10;;;;;;;187.31;100.00;61586.06;5093677;28;20055;-70
2022/05/21 10:57:04;;;;;;;10.29;4.52;;;;;;;26.37;100.00;61586.06;4705433;28;10002894;-70
2022/05/21 10:59:59;;;;;;;5.05;4.13;;;;;;;104.25;100.00;61586.06;5069653;28;20443;-74
2022/05/21 11:02:40;;;;;;;10.88;4.10;;;;;;;-144.47;100.00;61586.06;5087437;28;20047;-72
2022/05/21 11:05:40;;;;;;;6.43;4.35;;;;;;;62.74;100.00;61586.06;5084453;28;20032;-71
2022/05/21 11:08:11;;;;;;;6.82;4.03;;;;;;;187.31;100.00;61586.06;5091463;28;20039;-69
2022/05/21 11:11:08;;;;;;;9.25;4.10;;;;;;;-144.47;100.00;61586.06;5092298;28;20036;-67
2022/05/21 11:13:40;;;;;;;5.82;4.22;;;;;;;187.31;100.00;61586.06;5088754;28;20079;-67
2022/05/21 11:16:24;;;;;;;9.63;4.22;;;;;;;104.25;100.00;61586.06;5091912;28;20032;-67
2022/05/21 11:18:59;;;;;;;9.00;4.18;;;;;;;187.31;100.00;61586.06;5091596;28;20035;-68
2022/05/21 11:21:41;;;;;;;6.82;4.00;;;;;;;29.04;100.00;61586.06;5088084;28;20032;-67
2022/05/21 11:24:15;;;;;;;6.13;4.75;;;;;;;42.00;100.00;61586.06;5089878;28;20105;-68
2022/05/21 11:26:47;;;;;;;5.50;4.18;;;;;;;26.57;nan;99847.59;5095670;28;20035;-82
2022/05/21 11:30:01;;;;;;;4.43;4.00;;;;;;;26.49;nan;99846.91;5097008;28;20032;-81
2022/05/21 11:38:28;;;;;;;;;;;;;;;26.54;nan;99832.66;5095205;28;20054;-75
2022/05/21 11:46:55;;;;;;;5.68;4.45;;;;;;;26.67;nan;99826.97;5090778;28;20042;-78
2022/05/21 11:49:27;;;;;;;8.02;4.40;;;;;;;26.75;nan;99807.63;5092465;28;20028;-75
2022/05/21 11:51:54;;;;;;;5.40;4.47;;;;;;;26.99;100.00;61586.06;4741147;28;9999653;-72
2022/05/21 11:54:45;;;;;;;6.50;4.22;;;;;;;-144.47;100.00;61586.06;5093827;28;20031;-72
2022/05/21 11:57:11;;;;;;;8.80;4.07;;;;;;;-144.47;100.00;61586.06;5092784;28;20036;-69
2022/05/21 11:59:56;;;;;;;4.85;4.00;;;;;;;-144.47;100.00;61586.06;5091528;28;20039;-71
2022/05/21 12:02:28;;;;;;;14.25;4.40;;;;;;;27.75;nan;99796.09;5093097;28;20141;-69
2022/05/21 12:05:00;;;;;;;4.72;4.20;;;;;;;27.90;nan;99796.34;5088895;28;20715;-70
2022/05/21 12:07:40;;;;;;;7.50;4.07;;;;;;;-144.47;100.00;61586.06;5090803;28;20027;-71
2022/05/21 12:10:14;;;;;;;5.68;3.65;;;;;;;-144.47;100.00;61586.06;5097532;28;20047;-74
2022/05/21 12:13:05;;;;;;;5.50;3.90;;;;;;;30.87;100.00;61586.06;5098348;28;20040;-70